aviador You're here:

VEPT Decoded Metar

PATINA in INDIA
Report Time2018-01-16 12:30:00
UTC Time2018-01-16 13:29:33
Flight Rules ifr IFR
WindCalm
Visibility1700 m
Phenomena:N/A
Clouds:N/A
Expected CloudBase > 800 ft AGL from Temp-Dew spread
CeilingNone
Temp14°C (ISA -1)
Dew Point12°C (88% RH)
QNH1012 hPa
Density Alt348 ft
Elevation197 ft
Report Wrong Elevation
Raw Report
METAR VEPT 161230Z 00000KT 1700 R25/1800 14/12 Q1012 NOSIG=####018000072####
SAIN90 VABV 161300

Extra information for VEPT:More info

Metar Taf Metar & Taf Last 4 Metars F.Rules Stats Wind Profile Meteogram Temp Stats Airport Information Weather charts Add Link Nearby VenuesMetar ALERT Operation Metar Decoded Social comments